sensor_id;sensor_type;location;lat;lon;timestamp;P1;durP1;ratioP1;P2;durP2;ratioP2
31734;SDS011;18313;48.518;9.124;2023-03-08T00:00:34;13.73;;;6.68;;
31734;SDS011;18313;48.518;9.124;2023-03-08T00:03:02;13.40;;;7.10;;
31734;SDS011;18313;48.518;9.124;2023-03-08T00:05:29;13.73;;;6.97;;
31734;SDS011;18313;48.518;9.124;2023-03-08T00:07:57;17.27;;;8.02;;
31734;SDS011;18313;48.518;9.124;2023-03-08T00:10:25;12.57;;;7.47;;
31734;SDS011;18313;48.518;9.124;2023-03-08T00:12:52;13.85;;;7.45;;
31734;SDS011;18313;48.518;9.124;2023-03-08T00:15:19;13.43;;;7.45;;
31734;SDS011;18313;48.518;9.124;2023-03-08T00:17:46;17.42;;;6.97;;
31734;SDS011;18313;48.518;9.124;2023-03-08T00:20:14;14.52;;;7.05;;
31734;SDS011;18313;48.518;9.124;2023-03-08T00:22:42;14.40;;;7.30;;
31734;SDS011;18313;48.518;9.124;2023-03-08T00:25:09;13.68;;;7.20;;
31734;SDS011;18313;48.518;9.124;2023-03-08T00:27:37;14.30;;;7.28;;
31734;SDS011;18313;48.518;9.124;2023-03-08T00:30:04;13.15;;;7.03;;
31734;SDS011;18313;48.518;9.124;2023-03-08T00:32:32;18.50;;;8.02;;
31734;SDS011;18313;48.518;9.124;2023-03-08T00:34:59;14.55;;;7.15;;
31734;SDS011;18313;48.518;9.124;2023-03-08T00:37:27;16.45;;;8.05;;
31734;SDS011;18313;48.518;9.124;2023-03-08T00:39:54;16.70;;;7.45;;
31734;SDS011;18313;48.518;9.124;2023-03-08T00:42:22;16.02;;;7.22;;
31734;SDS011;18313;48.518;9.124;2023-03-08T00:44:50;16.10;;;7.47;;
31734;SDS011;18313;48.518;9.124;2023-03-08T00:47:18;16.25;;;7.82;;
31734;SDS011;18313;48.518;9.124;2023-03-08T00:49:45;16.27;;;7.47;;
31734;SDS011;18313;48.518;9.124;2023-03-08T00:52:12;14.20;;;7.68;;
31734;SDS011;18313;48.518;9.124;2023-03-08T00:54:40;17.52;;;8.30;;
31734;SDS011;18313;48.518;9.124;2023-03-08T00:57:07;14.02;;;7.68;;
31734;SDS011;18313;48.518;9.124;2023-03-08T00:59:34;14.10;;;7.60;;
31734;SDS011;18313;48.518;9.124;2023-03-08T01:02:02;15.05;;;7.80;;
31734;SDS011;18313;48.518;9.124;2023-03-08T01:04:31;16.00;;;8.05;;
31734;SDS011;18313;48.518;9.124;2023-03-08T01:06:59;15.23;;;7.55;;
31734;SDS011;18313;48.518;9.124;2023-03-08T01:09:27;15.85;;;8.18;;
31734;SDS011;18313;48.518;9.124;2023-03-08T01:11:54;16.13;;;7.88;;
31734;SDS011;18313;48.518;9.124;2023-03-08T01:14:21;16.42;;;7.97;;
31734;SDS011;18313;48.518;9.124;2023-03-08T01:16:49;18.45;;;7.78;;
31734;SDS011;18313;48.518;9.124;2023-03-08T01:19:16;16.67;;;8.25;;
31734;SDS011;18313;48.518;9.124;2023-03-08T01:21:44;13.85;;;7.32;;
31734;SDS011;18313;48.518;9.124;2023-03-08T01:24:11;15.82;;;8.07;;
31734;SDS011;18313;48.518;9.124;2023-03-08T01:26:38;16.58;;;8.38;;
31734;SDS011;18313;48.518;9.124;2023-03-08T01:29:05;15.20;;;7.90;;
31734;SDS011;18313;48.518;9.124;2023-03-08T01:31:33;17.67;;;7.88;;
31734;SDS011;18313;48.518;9.124;2023-03-08T01:34:00;15.68;;;8.05;;
31734;SDS011;18313;48.518;9.124;2023-03-08T01:36:27;14.90;;;7.53;;
31734;SDS011;18313;48.518;9.124;2023-03-08T01:38:55;18.35;;;8.30;;
31734;SDS011;18313;48.518;9.124;2023-03-08T01:41:28;17.67;;;8.18;;
31734;SDS011;18313;48.518;9.124;2023-03-08T01:43:56;12.75;;;7.13;;
31734;SDS011;18313;48.518;9.124;2023-03-08T01:54:36;14.50;;;7.43;;
31734;SDS011;18313;48.518;9.124;2023-03-08T02:00:05;17.35;;;8.43;;
31734;SDS011;18313;48.518;9.124;2023-03-08T02:02:39;15.27;;;8.13;;
31734;SDS011;18313;48.518;9.124;2023-03-08T02:07:37;15.13;;;7.35;;
31734;SDS011;18313;48.518;9.124;2023-03-08T02:10:04;13.55;;;7.40;;
31734;SDS011;18313;48.518;9.124;2023-03-08T02:12:32;17.77;;;8.27;;
31734;SDS011;18313;48.518;9.124;2023-03-08T02:15:00;14.55;;;7.68;;
31734;SDS011;18313;48.518;9.124;2023-03-08T02:17:29;16.40;;;7.70;;
31734;SDS011;18313;48.518;9.124;2023-03-08T02:19:59;16.75;;;7.25;;
31734;SDS011;18313;48.518;9.124;2023-03-08T02:22:37;14.50;;;7.80;;
31734;SDS011;18313;48.518;9.124;2023-03-08T02:25:21;12.52;;;6.78;;
31734;SDS011;18313;48.518;9.124;2023-03-08T02:27:50;14.45;;;7.97;;
31734;SDS011;18313;48.518;9.124;2023-03-08T02:30:23;13.90;;;7.72;;
31734;SDS011;18313;48.518;9.124;2023-03-08T02:32:51;16.38;;;7.68;;
31734;SDS011;18313;48.518;9.124;2023-03-08T02:35:18;15.80;;;7.70;;
31734;SDS011;18313;48.518;9.124;2023-03-08T02:37:46;14.90;;;7.30;;
31734;SDS011;18313;48.518;9.124;2023-03-08T02:40:13;15.10;;;8.10;;
31734;SDS011;18313;48.518;9.124;2023-03-08T02:42:41;13.30;;;7.20;;
31734;SDS011;18313;48.518;9.124;2023-03-08T02:45:08;15.93;;;7.80;;
31734;SDS011;18313;48.518;9.124;2023-03-08T02:47:36;15.38;;;7.60;;
31734;SDS011;18313;48.518;9.124;2023-03-08T02:50:04;14.18;;;6.53;;
31734;SDS011;18313;48.518;9.124;2023-03-08T02:52:31;13.38;;;6.93;;
31734;SDS011;18313;48.518;9.124;2023-03-08T02:54:59;14.38;;;7.22;;
31734;SDS011;18313;48.518;9.124;2023-03-08T02:57:26;14.45;;;7.28;;
31734;SDS011;18313;48.518;9.124;2023-03-08T02:59:53;15.27;;;7.65;;
31734;SDS011;18313;48.518;9.124;2023-03-08T03:02:20;14.75;;;7.93;;
31734;SDS011;18313;48.518;9.124;2023-03-08T03:04:47;14.27;;;7.63;;
31734;SDS011;18313;48.518;9.124;2023-03-08T03:07:14;16.88;;;7.93;;
31734;SDS011;18313;48.518;9.124;2023-03-08T03:09:42;15.27;;;7.82;;
31734;SDS011;18313;48.518;9.124;2023-03-08T03:12:09;15.05;;;7.97;;
31734;SDS011;18313;48.518;9.124;2023-03-08T03:14:35;17.23;;;8.30;;
31734;SDS011;18313;48.518;9.124;2023-03-08T03:17:03;16.98;;;8.65;;
31734;SDS011;18313;48.518;9.124;2023-03-08T03:19:30;14.45;;;8.18;;
31734;SDS011;18313;48.518;9.124;2023-03-08T03:21:59;19.80;;;9.13;;
31734;SDS011;18313;48.518;9.124;2023-03-08T03:24:25;18.00;;;8.75;;
31734;SDS011;18313;48.518;9.124;2023-03-08T03:26:53;18.05;;;9.23;;
31734;SDS011;18313;48.518;9.124;2023-03-08T03:29:20;16.85;;;8.82;;
31734;SDS011;18313;48.518;9.124;2023-03-08T03:31:47;18.10;;;8.73;;
31734;SDS011;18313;48.518;9.124;2023-03-08T03:34:14;18.08;;;9.18;;
31734;SDS011;18313;48.518;9.124;2023-03-08T03:36:40;17.75;;;9.07;;
31734;SDS011;18313;48.518;9.124;2023-03-08T03:39:07;15.68;;;8.30;;
31734;SDS011;18313;48.518;9.124;2023-03-08T03:41:35;14.35;;;8.30;;
31734;SDS011;18313;48.518;9.124;2023-03-08T03:44:02;17.70;;;8.73;;
31734;SDS011;18313;48.518;9.124;2023-03-08T03:46:29;16.45;;;8.70;;
31734;SDS011;18313;48.518;9.124;2023-03-08T03:48:57;17.98;;;8.65;;
31734;SDS011;18313;48.518;9.124;2023-03-08T03:51:24;15.02;;;8.63;;
31734;SDS011;18313;48.518;9.124;2023-03-08T03:53:51;16.42;;;8.63;;
31734;SDS011;18313;48.518;9.124;2023-03-08T03:56:19;18.45;;;8.82;;
31734;SDS011;18313;48.518;9.124;2023-03-08T03:58:49;18.92;;;9.13;;
31734;SDS011;18313;48.518;9.124;2023-03-08T04:01:19;19.55;;;9.68;;
31734;SDS011;18313;48.518;9.124;2023-03-08T04:03:51;17.52;;;9.25;;
31734;SDS011;18313;48.518;9.124;2023-03-08T04:06:21;18.23;;;10.02;;
31734;SDS011;18313;48.518;9.124;2023-03-08T04:08:53;17.33;;;9.27;;
31734;SDS011;18313;48.518;9.124;2023-03-08T04:11:21;18.95;;;8.68;;
31734;SDS011;18313;48.518;9.124;2023-03-08T04:13:51;18.05;;;9.80;;
31734;SDS011;18313;48.518;9.124;2023-03-08T04:16:20;17.90;;;9.20;;
31734;SDS011;18313;48.518;9.124;2023-03-08T04:18:55;20.80;;;9.95;;
31734;SDS011;18313;48.518;9.124;2023-03-08T04:21:24;18.60;;;9.27;;
31734;SDS011;18313;48.518;9.124;2023-03-08T04:23:51;23.25;;;9.65;;
31734;SDS011;18313;48.518;9.124;2023-03-08T04:26:19;19.25;;;10.05;;
31734;SDS011;18313;48.518;9.124;2023-03-08T04:28:46;19.60;;;9.60;;
31734;SDS011;18313;48.518;9.124;2023-03-08T04:31:14;19.23;;;9.30;;
31734;SDS011;18313;48.518;9.124;2023-03-08T04:33:49;21.92;;;9.98;;
31734;SDS011;18313;48.518;9.124;2023-03-08T04:36:16;19.00;;;9.88;;
31734;SDS011;18313;48.518;9.124;2023-03-08T04:38:43;17.60;;;9.50;;
31734;SDS011;18313;48.518;9.124;2023-03-08T04:41:11;17.30;;;8.65;;
31734;SDS011;18313;48.518;9.124;2023-03-08T04:44:00;17.17;;;9.32;;
31734;SDS011;18313;48.518;9.124;2023-03-08T04:46:26;22.23;;;10.00;;
31734;SDS011;18313;48.518;9.124;2023-03-08T04:48:53;18.40;;;9.48;;
31734;SDS011;18313;48.518;9.124;2023-03-08T04:51:24;17.05;;;8.93;;
31734;SDS011;18313;48.518;9.124;2023-03-08T04:53:51;18.38;;;9.27;;
31734;SDS011;18313;48.518;9.124;2023-03-08T04:56:18;18.17;;;9.25;;
31734;SDS011;18313;48.518;9.124;2023-03-08T04:58:45;16.05;;;9.18;;
31734;SDS011;18313;48.518;9.124;2023-03-08T05:01:14;18.15;;;9.52;;
31734;SDS011;18313;48.518;9.124;2023-03-08T05:03:43;18.90;;;9.10;;
31734;SDS011;18313;48.518;9.124;2023-03-08T05:06:11;17.90;;;9.10;;
31734;SDS011;18313;48.518;9.124;2023-03-08T05:08:39;15.10;;;8.55;;
31734;SDS011;18313;48.518;9.124;2023-03-08T05:11:07;23.35;;;9.93;;
31734;SDS011;18313;48.518;9.124;2023-03-08T05:13:35;17.92;;;9.38;;
31734;SDS011;18313;48.518;9.124;2023-03-08T05:16:04;19.80;;;10.35;;
31734;SDS011;18313;48.518;9.124;2023-03-08T05:18:32;19.52;;;9.52;;
31734;SDS011;18313;48.518;9.124;2023-03-08T05:21:01;19.20;;;10.15;;
31734;SDS011;18313;48.518;9.124;2023-03-08T05:23:30;18.83;;;9.25;;
31734;SDS011;18313;48.518;9.124;2023-03-08T05:25:58;18.45;;;9.38;;
31734;SDS011;18313;48.518;9.124;2023-03-08T05:28:27;18.13;;;9.13;;
31734;SDS011;18313;48.518;9.124;2023-03-08T05:31:15;17.90;;;9.40;;
31734;SDS011;18313;48.518;9.124;2023-03-08T05:33:44;19.30;;;9.48;;
31734;SDS011;18313;48.518;9.124;2023-03-08T05:36:14;18.70;;;9.18;;
31734;SDS011;18313;48.518;9.124;2023-03-08T05:38:42;16.30;;;9.18;;
31734;SDS011;18313;48.518;9.124;2023-03-08T05:41:13;18.15;;;10.35;;
31734;SDS011;18313;48.518;9.124;2023-03-08T05:43:41;17.73;;;9.35;;
31734;SDS011;18313;48.518;9.124;2023-03-08T05:46:10;17.98;;;9.40;;
31734;SDS011;18313;48.518;9.124;2023-03-08T05:48:39;16.38;;;8.68;;
31734;SDS011;18313;48.518;9.124;2023-03-08T05:51:07;17.20;;;9.57;;
31734;SDS011;18313;48.518;9.124;2023-03-08T05:53:38;17.92;;;9.55;;
31734;SDS011;18313;48.518;9.124;2023-03-08T05:56:12;20.15;;;10.23;;
31734;SDS011;18313;48.518;9.124;2023-03-08T05:58:41;18.08;;;9.38;;
31734;SDS011;18313;48.518;9.124;2023-03-08T06:03:42;18.10;;;9.38;;
31734;SDS011;18313;48.518;9.124;2023-03-08T06:06:10;20.33;;;10.00;;
31734;SDS011;18313;48.518;9.124;2023-03-08T06:08:38;17.13;;;9.50;;
31734;SDS011;18313;48.518;9.124;2023-03-08T06:11:06;16.35;;;9.55;;
31734;SDS011;18313;48.518;9.124;2023-03-08T06:13:33;17.35;;;8.95;;
31734;SDS011;18313;48.518;9.124;2023-03-08T06:16:01;17.30;;;8.73;;
31734;SDS011;18313;48.518;9.124;2023-03-08T06:18:29;22.75;;;9.93;;
31734;SDS011;18313;48.518;9.124;2023-03-08T06:21:00;21.08;;;10.45;;
31734;SDS011;18313;48.518;9.124;2023-03-08T06:23:30;19.23;;;10.65;;
31734;SDS011;18313;48.518;9.124;2023-03-08T06:25:58;18.83;;;10.43;;
31734;SDS011;18313;48.518;9.124;2023-03-08T06:28:26;20.67;;;10.48;;
31734;SDS011;18313;48.518;9.124;2023-03-08T06:30:53;20.92;;;10.57;;
31734;SDS011;18313;48.518;9.124;2023-03-08T06:33:22;21.50;;;10.98;;
31734;SDS011;18313;48.518;9.124;2023-03-08T06:35:54;24.00;;;11.13;;
31734;SDS011;18313;48.518;9.124;2023-03-08T06:38:25;23.30;;;11.27;;
31734;SDS011;18313;48.518;9.124;2023-03-08T06:40:55;21.10;;;11.52;;
31734;SDS011;18313;48.518;9.124;2023-03-08T06:43:23;21.33;;;12.20;;
31734;SDS011;18313;48.518;9.124;2023-03-08T06:45:50;21.23;;;11.38;;
31734;SDS011;18313;48.518;9.124;2023-03-08T06:48:18;20.48;;;11.30;;
31734;SDS011;18313;48.518;9.124;2023-03-08T06:50:45;21.67;;;11.35;;
31734;SDS011;18313;48.518;9.124;2023-03-08T06:53:12;20.73;;;12.02;;
31734;SDS011;18313;48.518;9.124;2023-03-08T06:55:40;20.88;;;11.82;;
31734;SDS011;18313;48.518;9.124;2023-03-08T06:58:07;23.05;;;12.93;;
31734;SDS011;18313;48.518;9.124;2023-03-08T07:00:34;20.02;;;11.88;;
31734;SDS011;18313;48.518;9.124;2023-03-08T07:03:01;20.35;;;11.27;;
31734;SDS011;18313;48.518;9.124;2023-03-08T07:05:28;21.65;;;11.35;;
31734;SDS011;18313;48.518;9.124;2023-03-08T07:07:56;20.52;;;11.10;;
31734;SDS011;18313;48.518;9.124;2023-03-08T07:10:23;22.23;;;11.50;;
31734;SDS011;18313;48.518;9.124;2023-03-08T07:12:50;20.95;;;11.02;;
31734;SDS011;18313;48.518;9.124;2023-03-08T07:15:18;22.42;;;11.10;;
31734;SDS011;18313;48.518;9.124;2023-03-08T07:17:48;20.13;;;11.05;;
31734;SDS011;18313;48.518;9.124;2023-03-08T07:20:18;20.17;;;11.35;;
31734;SDS011;18313;48.518;9.124;2023-03-08T07:22:45;22.17;;;11.77;;
31734;SDS011;18313;48.518;9.124;2023-03-08T07:25:13;21.23;;;11.00;;
31734;SDS011;18313;48.518;9.124;2023-03-08T07:27:42;19.55;;;10.52;;
31734;SDS011;18313;48.518;9.124;2023-03-08T07:30:10;18.70;;;10.07;;
31734;SDS011;18313;48.518;9.124;2023-03-08T07:32:39;23.77;;;10.23;;
31734;SDS011;18313;48.518;9.124;2023-03-08T07:35:11;17.67;;;10.15;;
31734;SDS011;18313;48.518;9.124;2023-03-08T07:37:39;18.83;;;10.13;;
31734;SDS011;18313;48.518;9.124;2023-03-08T07:40:10;19.38;;;10.13;;
31734;SDS011;18313;48.518;9.124;2023-03-08T07:42:38;21.85;;;11.50;;
31734;SDS011;18313;48.518;9.124;2023-03-08T07:45:05;23.70;;;11.60;;
31734;SDS011;18313;48.518;9.124;2023-03-08T07:47:32;21.20;;;11.23;;
31734;SDS011;18313;48.518;9.124;2023-03-08T07:50:00;19.67;;;11.75;;
31734;SDS011;18313;48.518;9.124;2023-03-08T07:52:27;21.15;;;11.05;;
31734;SDS011;18313;48.518;9.124;2023-03-08T07:54:55;22.10;;;11.25;;
31734;SDS011;18313;48.518;9.124;2023-03-08T07:57:22;19.02;;;10.38;;
31734;SDS011;18313;48.518;9.124;2023-03-08T07:59:49;18.08;;;10.02;;
31734;SDS011;18313;48.518;9.124;2023-03-08T08:02:19;18.70;;;10.50;;
31734;SDS011;18313;48.518;9.124;2023-03-08T08:04:48;16.77;;;10.18;;
31734;SDS011;18313;48.518;9.124;2023-03-08T08:07:16;23.85;;;11.45;;
31734;SDS011;18313;48.518;9.124;2023-03-08T08:09:43;19.00;;;10.48;;
31734;SDS011;18313;48.518;9.124;2023-03-08T08:12:10;18.85;;;11.15;;
31734;SDS011;18313;48.518;9.124;2023-03-08T08:14:38;20.42;;;11.20;;
31734;SDS011;18313;48.518;9.124;2023-03-08T08:17:05;20.17;;;10.82;;
31734;SDS011;18313;48.518;9.124;2023-03-08T08:19:32;18.60;;;10.98;;
31734;SDS011;18313;48.518;9.124;2023-03-08T08:21:59;18.58;;;10.85;;
31734;SDS011;18313;48.518;9.124;2023-03-08T08:24:26;21.58;;;10.77;;
31734;SDS011;18313;48.518;9.124;2023-03-08T08:26:54;19.65;;;10.57;;
31734;SDS011;18313;48.518;9.124;2023-03-08T08:29:21;22.15;;;11.05;;
31734;SDS011;18313;48.518;9.124;2023-03-08T08:31:48;21.45;;;11.00;;
31734;SDS011;18313;48.518;9.124;2023-03-08T08:34:18;22.75;;;11.60;;
31734;SDS011;18313;48.518;9.124;2023-03-08T08:36:45;19.25;;;10.40;;
31734;SDS011;18313;48.518;9.124;2023-03-08T08:39:12;20.73;;;10.57;;
31734;SDS011;18313;48.518;9.124;2023-03-08T08:41:39;20.48;;;10.60;;
31734;SDS011;18313;48.518;9.124;2023-03-08T08:44:06;20.13;;;10.65;;
31734;SDS011;18313;48.518;9.124;2023-03-08T08:46:33;19.85;;;10.77;;
31734;SDS011;18313;48.518;9.124;2023-03-08T08:49:01;20.58;;;10.80;;
31734;SDS011;18313;48.518;9.124;2023-03-08T08:51:30;19.98;;;11.00;;
31734;SDS011;18313;48.518;9.124;2023-03-08T08:53:57;23.02;;;11.15;;
31734;SDS011;18313;48.518;9.124;2023-03-08T08:56:25;20.70;;;11.68;;
31734;SDS011;18313;48.518;9.124;2023-03-08T08:58:58;22.52;;;11.68;;
31734;SDS011;18313;48.518;9.124;2023-03-08T09:01:27;22.95;;;11.38;;
31734;SDS011;18313;48.518;9.124;2023-03-08T09:03:57;20.75;;;11.77;;
31734;SDS011;18313;48.518;9.124;2023-03-08T09:06:26;20.13;;;11.50;;
31734;SDS011;18313;48.518;9.124;2023-03-08T09:08:54;24.20;;;12.35;;
31734;SDS011;18313;48.518;9.124;2023-03-08T09:11:23;30.77;;;15.93;;
31734;SDS011;18313;48.518;9.124;2023-03-08T09:13:52;23.08;;;11.80;;
31734;SDS011;18313;48.518;9.124;2023-03-08T09:16:23;24.13;;;12.20;;
31734;SDS011;18313;48.518;9.124;2023-03-08T09:18:55;24.83;;;11.55;;
31734;SDS011;18313;48.518;9.124;2023-03-08T09:21:23;22.73;;;11.27;;
31734;SDS011;18313;48.518;9.124;2023-03-08T09:23:51;18.52;;;9.07;;
31734;SDS011;18313;48.518;9.124;2023-03-08T09:26:18;17.75;;;10.00;;
31734;SDS011;18313;48.518;9.124;2023-03-08T09:28:45;8.15;;;3.78;;
31734;SDS011;18313;48.518;9.124;2023-03-08T09:31:13;4.93;;;2.67;;
31734;SDS011;18313;48.518;9.124;2023-03-08T09:33:45;4.53;;;2.67;;
31734;SDS011;18313;48.518;9.124;2023-03-08T09:36:15;4.75;;;2.60;;
31734;SDS011;18313;48.518;9.124;2023-03-08T09:38:42;5.60;;;2.88;;
31734;SDS011;18313;48.518;9.124;2023-03-08T09:46:52;7.30;;;3.80;;
31734;SDS011;18313;48.518;9.124;2023-03-08T09:49:27;5.28;;;3.30;;
31734;SDS011;18313;48.518;9.124;2023-03-08T09:52:03;7.25;;;3.30;;
31734;SDS011;18313;48.518;9.124;2023-03-08T09:54:39;7.25;;;3.40;;
31734;SDS011;18313;48.518;9.124;2023-03-08T09:57:22;7.57;;;2.85;;
31734;SDS011;18313;48.518;9.124;2023-03-08T10:05:16;5.25;;;3.50;;
31734;SDS011;18313;48.518;9.124;2023-03-08T10:08:05;6.93;;;3.53;;
31734;SDS011;18313;48.518;9.124;2023-03-08T10:10:52;5.97;;;3.58;;
31734;SDS011;18313;48.518;9.124;2023-03-08T10:13:39;6.63;;;3.43;;
31734;SDS011;18313;48.518;9.124;2023-03-08T10:16:27;7.10;;;3.80;;
31734;SDS011;18313;48.518;9.124;2023-03-08T10:21:40;8.27;;;3.80;;
31734;SDS011;18313;48.518;9.124;2023-03-08T10:24:14;8.02;;;3.80;;
31734;SDS011;18313;48.518;9.124;2023-03-08T10:26:44;6.85;;;3.78;;
31734;SDS011;18313;48.518;9.124;2023-03-08T10:29:11;6.25;;;3.65;;
31734;SDS011;18313;48.518;9.124;2023-03-08T10:31:40;6.75;;;3.55;;
31734;SDS011;18313;48.518;9.124;2023-03-08T10:34:22;6.05;;;3.60;;
31734;SDS011;18313;48.518;9.124;2023-03-08T10:36:59;6.95;;;3.38;;
31734;SDS011;18313;48.518;9.124;2023-03-08T10:39:27;6.43;;;3.53;;
31734;SDS011;18313;48.518;9.124;2023-03-08T10:47:19;7.15;;;3.45;;
31734;SDS011;18313;48.518;9.124;2023-03-08T10:52:30;4.90;;;3.08;;
31734;SDS011;18313;48.518;9.124;2023-03-08T10:55:13;6.78;;;3.13;;
31734;SDS011;18313;48.518;9.124;2023-03-08T10:57:55;6.72;;;3.40;;
31734;SDS011;18313;48.518;9.124;2023-03-08T11:00:32;5.80;;;3.03;;
31734;SDS011;18313;48.518;9.124;2023-03-08T11:03:10;7.13;;;3.05;;
31734;SDS011;18313;48.518;9.124;2023-03-08T11:05:58;5.60;;;2.78;;
31734;SDS011;18313;48.518;9.124;2023-03-08T11:08:36;3.03;;;1.60;;
31734;SDS011;18313;48.518;9.124;2023-03-08T11:11:06;3.65;;;1.13;;
31734;SDS011;18313;48.518;9.124;2023-03-08T11:13:39;4.20;;;1.25;;
31734;SDS011;18313;48.518;9.124;2023-03-08T11:16:23;2.63;;;1.05;;
31734;SDS011;18313;48.518;9.124;2023-03-08T11:30:10;0.60;;;0.47;;
31734;SDS011;18313;48.518;9.124;2023-03-08T11:38:07;1.80;;;0.60;;
31734;SDS011;18313;48.518;9.124;2023-03-08T11:51:40;0.85;;;0.47;;
31734;SDS011;18313;48.518;9.124;2023-03-08T11:54:26;0.73;;;0.50;;
31734;SDS011;18313;48.518;9.124;2023-03-08T11:57:29;1.05;;;0.43;;
31734;SDS011;18313;48.518;9.124;2023-03-08T12:00:20;1.95;;;0.40;;
31734;SDS011;18313;48.518;9.124;2023-03-08T12:03:25;2.33;;;0.50;;
31734;SDS011;18313;48.518;9.124;2023-03-08T12:06:08;1.33;;;0.50;;
31734;SDS011;18313;48.518;9.124;2023-03-08T12:09:15;1.10;;;0.50;;
31734;SDS011;18313;48.518;9.124;2023-03-08T12:11:57;0.47;;;0.40;;
31734;SDS011;18313;48.518;9.124;2023-03-08T12:14:30;1.85;;;0.40;;
31734;SDS011;18313;48.518;9.124;2023-03-08T12:17:12;1.67;;;0.50;;
31734;SDS011;18313;48.518;9.124;2023-03-08T12:19:46;1.40;;;0.60;;
31734;SDS011;18313;48.518;9.124;2023-03-08T12:25:10;0.55;;;0.43;;
31734;SDS011;18313;48.518;9.124;2023-03-08T12:27:46;1.20;;;0.50;;
31734;SDS011;18313;48.518;9.124;2023-03-08T12:33:09;0.40;;;0.40;;
31734;SDS011;18313;48.518;9.124;2023-03-08T12:35:49;0.85;;;0.30;;
31734;SDS011;18313;48.518;9.124;2023-03-08T12:40:50;0.70;;;0.40;;
31734;SDS011;18313;48.518;9.124;2023-03-08T12:45:46;2.35;;;0.40;;
31734;SDS011;18313;48.518;9.124;2023-03-08T12:51:06;1.33;;;0.40;;
31734;SDS011;18313;48.518;9.124;2023-03-08T12:59:21;3.75;;;1.45;;
31734;SDS011;18313;48.518;9.124;2023-03-08T13:01:40;0.60;;;0.50;;
31734;SDS011;18313;48.518;9.124;2023-03-08T13:07:18;2.92;;;0.85;;
31734;SDS011;18313;48.518;9.124;2023-03-08T13:10:02;0.52;;;0.50;;
31734;SDS011;18313;48.518;9.124;2023-03-08T13:13:01;1.00;;;0.40;;
31734;SDS011;18313;48.518;9.124;2023-03-08T13:15:36;1.58;;;0.45;;
31734;SDS011;18313;48.518;9.124;2023-03-08T13:25:48;2.72;;;0.35;;
31734;SDS011;18313;48.518;9.124;2023-03-08T13:28:31;0.63;;;0.40;;
31734;SDS011;18313;48.518;9.124;2023-03-08T13:31:17;3.53;;;0.82;;
31734;SDS011;18313;48.518;9.124;2023-03-08T13:33:47;2.20;;;0.50;;
31734;SDS011;18313;48.518;9.124;2023-03-08T13:36:18;1.52;;;0.90;;
31734;SDS011;18313;48.518;9.124;2023-03-08T13:38:53;1.60;;;0.50;;
31734;SDS011;18313;48.518;9.124;2023-03-08T13:44:03;0.60;;;0.40;;
31734;SDS011;18313;48.518;9.124;2023-03-08T13:46:31;0.85;;;0.60;;
31734;SDS011;18313;48.518;9.124;2023-03-08T13:48:59;1.75;;;0.50;;
31734;SDS011;18313;48.518;9.124;2023-03-08T13:51:27;2.67;;;0.50;;
31734;SDS011;18313;48.518;9.124;2023-03-08T13:53:55;1.10;;;0.52;;
31734;SDS011;18313;48.518;9.124;2023-03-08T13:56:23;0.52;;;0.30;;
31734;SDS011;18313;48.518;9.124;2023-03-08T13:58:53;2.20;;;0.70;;
31734;SDS011;18313;48.518;9.124;2023-03-08T14:01:23;2.08;;;0.50;;
31734;SDS011;18313;48.518;9.124;2023-03-08T14:03:52;0.45;;;0.30;;
31734;SDS011;18313;48.518;9.124;2023-03-08T14:06:21;4.47;;;0.80;;
31734;SDS011;18313;48.518;9.124;2023-03-08T14:08:49;2.60;;;0.47;;
31734;SDS011;18313;48.518;9.124;2023-03-08T14:11:19;1.38;;;0.65;;
31734;SDS011;18313;48.518;9.124;2023-03-08T14:13:50;2.85;;;0.80;;
31734;SDS011;18313;48.518;9.124;2023-03-08T14:16:37;1.65;;;0.70;;
31734;SDS011;18313;48.518;9.124;2023-03-08T14:19:15;2.63;;;0.40;;
31734;SDS011;18313;48.518;9.124;2023-03-08T14:21:48;2.17;;;0.75;;
31734;SDS011;18313;48.518;9.124;2023-03-08T14:24:19;1.13;;;0.38;;
31734;SDS011;18313;48.518;9.124;2023-03-08T14:26:53;0.70;;;0.40;;
31734;SDS011;18313;48.518;9.124;2023-03-08T14:29:31;2.78;;;0.80;;
31734;SDS011;18313;48.518;9.124;2023-03-08T14:34:37;1.10;;;0.60;;
31734;SDS011;18313;48.518;9.124;2023-03-08T14:39:49;1.05;;;0.47;;
31734;SDS011;18313;48.518;9.124;2023-03-08T14:42:33;4.47;;;0.60;;
31734;SDS011;18313;48.518;9.124;2023-03-08T14:50:52;0.52;;;0.35;;
31734;SDS011;18313;48.518;9.124;2023-03-08T14:53:28;1.67;;;0.55;;
31734;SDS011;18313;48.518;9.124;2023-03-08T14:55:58;5.88;;;1.35;;
31734;SDS011;18313;48.518;9.124;2023-03-08T14:58:28;1.05;;;0.40;;
31734;SDS011;18313;48.518;9.124;2023-03-08T15:00:58;1.60;;;0.45;;
31734;SDS011;18313;48.518;9.124;2023-03-08T15:03:27;2.75;;;0.40;;
31734;SDS011;18313;48.518;9.124;2023-03-08T15:05:55;1.23;;;0.50;;
31734;SDS011;18313;48.518;9.124;2023-03-08T15:08:24;0.98;;;0.50;;
31734;SDS011;18313;48.518;9.124;2023-03-08T15:10:52;1.30;;;0.43;;
31734;SDS011;18313;48.518;9.124;2023-03-08T15:13:22;1.40;;;0.40;;
31734;SDS011;18313;48.518;9.124;2023-03-08T15:15:50;1.25;;;0.60;;
31734;SDS011;18313;48.518;9.124;2023-03-08T15:18:17;1.48;;;0.50;;
31734;SDS011;18313;48.518;9.124;2023-03-08T15:20:45;1.25;;;0.47;;
31734;SDS011;18313;48.518;9.124;2023-03-08T15:23:16;0.35;;;0.30;;
31734;SDS011;18313;48.518;9.124;2023-03-08T15:25:47;1.42;;;0.40;;
31734;SDS011;18313;48.518;9.124;2023-03-08T15:28:16;0.82;;;0.47;;
31734;SDS011;18313;48.518;9.124;2023-03-08T15:30:45;7.45;;;0.80;;
31734;SDS011;18313;48.518;9.124;2023-03-08T15:33:13;1.13;;;0.60;;
31734;SDS011;18313;48.518;9.124;2023-03-08T15:35:40;1.00;;;0.50;;
31734;SDS011;18313;48.518;9.124;2023-03-08T15:38:09;1.42;;;0.60;;
31734;SDS011;18313;48.518;9.124;2023-03-08T15:40:41;1.47;;;0.50;;
31734;SDS011;18313;48.518;9.124;2023-03-08T15:43:09;3.58;;;0.88;;
31734;SDS011;18313;48.518;9.124;2023-03-08T15:45:36;1.85;;;0.88;;
31734;SDS011;18313;48.518;9.124;2023-03-08T15:48:06;1.92;;;1.00;;
31734;SDS011;18313;48.518;9.124;2023-03-08T15:50:37;2.75;;;1.10;;
31734;SDS011;18313;48.518;9.124;2023-03-08T15:53:05;3.35;;;1.35;;
31734;SDS011;18313;48.518;9.124;2023-03-08T15:55:32;1.88;;;0.52;;
31734;SDS011;18313;48.518;9.124;2023-03-08T15:57:59;3.50;;;1.00;;
31734;SDS011;18313;48.518;9.124;2023-03-08T16:00:26;1.05;;;0.60;;
31734;SDS011;18313;48.518;9.124;2023-03-08T16:02:54;2.25;;;0.60;;
31734;SDS011;18313;48.518;9.124;2023-03-08T16:05:21;0.70;;;0.50;;
31734;SDS011;18313;48.518;9.124;2023-03-08T16:08:00;1.10;;;0.40;;
31734;SDS011;18313;48.518;9.124;2023-03-08T16:10:29;0.77;;;0.40;;
31734;SDS011;18313;48.518;9.124;2023-03-08T16:12:58;0.40;;;0.40;;
31734;SDS011;18313;48.518;9.124;2023-03-08T16:15:25;0.77;;;0.50;;
31734;SDS011;18313;48.518;9.124;2023-03-08T16:17:52;1.10;;;0.57;;
31734;SDS011;18313;48.518;9.124;2023-03-08T16:20:19;2.60;;;0.60;;
31734;SDS011;18313;48.518;9.124;2023-03-08T16:22:48;4.88;;;0.73;;
31734;SDS011;18313;48.518;9.124;2023-03-08T16:25:16;1.73;;;0.80;;
31734;SDS011;18313;48.518;9.124;2023-03-08T16:27:43;3.80;;;1.40;;
31734;SDS011;18313;48.518;9.124;2023-03-08T16:30:10;2.70;;;1.08;;
31734;SDS011;18313;48.518;9.124;2023-03-08T16:32:38;3.15;;;1.10;;
31734;SDS011;18313;48.518;9.124;2023-03-08T16:35:06;1.23;;;0.70;;
31734;SDS011;18313;48.518;9.124;2023-03-08T16:37:33;1.50;;;0.90;;
31734;SDS011;18313;48.518;9.124;2023-03-08T16:40:00;2.55;;;1.25;;
31734;SDS011;18313;48.518;9.124;2023-03-08T16:42:32;1.63;;;0.80;;